createdAt,value
2023-02-28T00:00:11.530Z,99424.72
2023-02-28T00:00:24.571Z,99421.31
2023-02-28T00:00:37.997Z,99426.56
2023-02-28T00:00:51.037Z,99424.81
2023-02-28T00:01:04.175Z,99419.69
2023-02-28T00:01:17.093Z,99418.81
2023-02-28T00:01:30.483Z,99423.13
2023-02-28T00:01:43.668Z,99425.72
2023-02-28T00:01:56.577Z,99421.31
2023-02-28T00:02:09.615Z,99423.00
2023-02-28T00:02:22.552Z,99423.94
2023-02-28T00:02:35.622Z,99423.06
2023-02-28T00:02:48.589Z,99424.81
2023-02-28T00:03:01.519Z,99424.81
2023-02-28T00:03:14.589Z,99418.69
2023-02-28T00:03:27.545Z,99423.03
2023-02-28T00:03:40.578Z,99426.53
2023-02-28T00:03:53.499Z,99428.13
2023-02-28T00:04:06.717Z,99422.91
2023-02-28T00:04:19.592Z,99426.41
2023-02-28T00:04:32.561Z,99423.78
2023-02-28T00:04:45.639Z,99424.63
2023-02-28T00:05:02.120Z,99430.81
2023-02-28T00:05:17.432Z,99424.72
2023-02-28T00:05:30.407Z,99424.66
2023-02-28T00:05:43.401Z,99429.09
2023-02-28T00:05:56.348Z,99430.84
2023-02-28T00:06:10.616Z,99431.75
2023-02-28T00:06:23.590Z,99430.88
2023-02-28T00:06:36.487Z,99431.72
2023-02-28T00:06:49.475Z,99431.72
2023-02-28T00:07:02.495Z,99438.72
2023-02-28T00:07:15.593Z,99431.75
2023-02-28T00:07:29.077Z,99432.72
2023-02-28T00:07:43.053Z,99431.84
2023-02-28T00:07:56.116Z,99433.56
2023-02-28T00:08:09.462Z,99434.44
2023-02-28T00:08:22.382Z,99439.69
2023-02-28T00:08:35.383Z,99432.72
2023-02-28T00:08:48.793Z,99432.75
2023-02-28T00:09:01.740Z,99434.44
2023-02-28T00:09:14.641Z,99431.00
2023-02-28T00:09:27.639Z,99435.34
2023-02-28T00:09:40.544Z,99426.66
2023-02-28T00:09:53.517Z,99433.59
2023-02-28T00:10:10.326Z,99435.38
2023-02-28T00:10:27.928Z,99428.44
2023-02-28T00:10:40.774Z,99440.56
2023-02-28T00:10:53.657Z,99433.62
2023-02-28T00:11:08.101Z,99434.44
2023-02-28T00:11:21.983Z,99440.53
2023-02-28T00:11:34.991Z,99433.56
2023-02-28T00:11:48.094Z,99432.72
2023-02-28T00:12:01.112Z,99431.84
2023-02-28T00:12:14.136Z,99437.09
2023-02-28T00:12:27.300Z,99437.06
2023-02-28T00:12:41.044Z,99438.78
2023-02-28T00:12:55.027Z,99442.31
2023-02-28T00:13:08.224Z,99437.94
2023-02-28T00:13:21.159Z,99438.84
2023-02-28T00:13:35.531Z,99437.09
2023-02-28T00:13:48.762Z,99443.22
2023-02-28T00:14:01.830Z,99443.28
2023-02-28T00:14:14.771Z,99440.59
2023-02-28T00:14:27.736Z,99443.19
2023-02-28T00:14:40.846Z,99438.06
2023-02-28T00:14:54.034Z,99438.06
2023-02-28T00:15:10.038Z,99438.94
2023-02-28T00:15:23.887Z,99439.78
2023-02-28T00:15:36.999Z,99441.53
2023-02-28T00:16:09.522Z,99448.53
2023-02-28T00:16:22.823Z,99438.09
2023-02-28T00:16:35.873Z,99439.81
2023-02-28T00:16:48.836Z,99445.94
2023-02-28T00:17:01.837Z,99447.66
2023-02-28T00:17:14.767Z,99445.03
2023-02-28T00:17:27.930Z,99450.28
2023-02-28T00:17:40.906Z,99444.16
2023-02-28T00:17:53.980Z,99445.91
2023-02-28T00:18:06.988Z,99452.00
2023-02-28T00:18:19.989Z,99452.00
2023-02-28T00:18:32.941Z,99443.28
2023-02-28T00:18:46.319Z,99452.78
2023-02-28T00:18:59.306Z,99450.13
2023-02-28T00:19:14.348Z,99446.59
2023-02-28T00:19:27.370Z,99444.87
2023-02-28T00:19:40.373Z,99451.03
2023-02-28T00:19:53.414Z,99451.00
2023-02-28T00:20:11.138Z,99450.13
2023-02-28T00:20:24.053Z,99449.31
2023-02-28T00:20:36.877Z,99456.31
2023-02-28T00:20:49.827Z,99451.87
2023-02-28T00:21:02.811Z,99449.25
2023-02-28T00:21:16.772Z,99455.34
2023-02-28T00:21:30.099Z,99451.84
2023-02-28T00:21:43.973Z,99450.09
2023-02-28T00:21:56.992Z,99451.84
2023-02-28T00:22:09.942Z,99450.13
2023-02-28T00:22:22.957Z,99446.69
2023-02-28T00:22:35.895Z,99451.97
2023-02-28T00:22:51.087Z,99453.63
2023-02-28T00:23:04.093Z,99453.59
2023-02-28T00:23:17.060Z,99448.38
2023-02-28T00:23:31.942Z,99448.28
2023-02-28T00:23:44.977Z,99451.81
2023-02-28T00:24:36.548Z,99453.47
2023-02-28T00:24:53.442Z,99451.75
2023-02-28T00:25:08.145Z,99456.97
2023-02-28T00:25:40.975Z,99453.50
2023-02-28T00:26:13.839Z,99451.81
2023-02-28T00:27:04.950Z,99456.16
2023-02-28T00:27:40.262Z,99452.69
2023-02-28T00:28:12.967Z,99457.09
2023-02-28T00:28:45.659Z,99460.53
2023-02-28T00:29:18.752Z,99454.34
2023-02-28T00:29:51.430Z,99453.47
2023-02-28T00:30:24.401Z,99451.81
2023-02-28T00:31:15.702Z,99452.69
2023-02-28T00:31:49.780Z,99456.09
2023-02-28T00:32:22.688Z,99452.63
2023-02-28T00:32:55.302Z,99455.25
2023-02-28T00:33:29.048Z,99456.97
2023-02-28T00:34:02.620Z,99452.69
2023-02-28T00:34:38.646Z,99455.31
2023-02-28T00:35:11.745Z,99451.81
2023-02-28T00:35:47.516Z,99458.81
2023-02-28T00:36:22.471Z,99456.19
2023-02-28T00:36:55.366Z,99458.81
2023-02-28T00:37:28.955Z,99455.31
2023-02-28T00:38:01.721Z,99458.78
2023-02-28T00:38:18.629Z,99459.59
2023-02-28T00:38:51.909Z,99456.09
2023-02-28T00:39:21.224Z,99453.50
2023-02-28T00:39:54.012Z,99462.19
2023-02-28T00:40:26.703Z,99463.12
2023-02-28T00:40:59.670Z,99460.56
2023-02-28T00:41:32.340Z,99457.09
2023-02-28T00:42:05.220Z,99457.12
2023-02-28T00:42:18.346Z,99463.28
2023-02-28T00:42:31.322Z,99459.78
2023-02-28T00:42:44.455Z,99453.66
2023-02-28T00:42:57.454Z,99455.34
2023-02-28T00:43:10.386Z,99462.28
2023-02-28T00:43:23.402Z,99464.00
2023-02-28T00:43:37.234Z,99460.53
2023-02-28T00:43:52.134Z,99464.03
2023-02-28T00:44:05.519Z,99459.66
2023-02-28T00:44:23.003Z,99454.31
2023-02-28T00:44:36.062Z,99461.28
2023-02-28T00:44:49.043Z,99458.69
2023-02-28T00:45:02.431Z,99464.81
2023-02-28T00:45:15.536Z,99461.28
2023-02-28T00:45:28.572Z,99468.28
2023-02-28T00:45:41.501Z,99467.47
2023-02-28T00:45:54.528Z,99463.94
2023-02-28T00:46:07.736Z,99463.94
2023-02-28T00:46:20.816Z,99460.50
2023-02-28T00:46:34.015Z,99459.66
2023-02-28T00:46:47.105Z,99459.56
2023-02-28T00:47:00.223Z,99461.31
2023-02-28T00:47:13.244Z,99460.37
2023-02-28T00:47:26.460Z,99463.00
2023-02-28T00:47:39.578Z,99463.00
2023-02-28T00:47:52.740Z,99463.91
2023-02-28T00:48:07.307Z,99463.03
2023-02-28T00:48:20.314Z,99461.28
2023-02-28T00:48:33.341Z,99462.16
2023-02-28T00:48:46.428Z,99464.78
2023-02-28T00:48:59.609Z,99459.56
2023-02-28T00:49:12.578Z,99463.00
2023-02-28T00:49:26.057Z,99468.22
2023-02-28T00:49:39.050Z,99471.69
2023-02-28T00:49:52.070Z,99463.84
2023-02-28T00:50:05.687Z,99458.66
2023-02-28T00:50:22.194Z,99466.47
2023-02-28T00:50:35.278Z,99466.47
2023-02-28T00:50:52.991Z,99466.53
2023-02-28T00:51:05.852Z,99465.66
2023-02-28T00:51:18.759Z,99463.91
2023-02-28T00:51:31.745Z,99465.66
2023-02-28T00:51:44.712Z,99468.28
2023-02-28T00:51:57.853Z,99463.06
2023-02-28T00:52:10.761Z,99465.66
2023-02-28T00:52:23.861Z,99469.97
2023-02-28T00:52:36.859Z,99469.16
2023-02-28T00:52:49.844Z,99466.53
2023-02-28T00:53:02.780Z,99470.03
2023-02-28T00:53:15.766Z,99463.12
2023-02-28T00:53:28.975Z,99463.06
2023-02-28T00:53:42.060Z,99470.03
2023-02-28T00:53:55.258Z,99468.34
2023-02-28T00:54:08.263Z,99469.13
2023-02-28T00:54:21.499Z,99460.41
2023-02-28T00:54:34.478Z,99462.19
2023-02-28T00:54:47.460Z,99470.06
2023-02-28T00:55:00.541Z,99461.38
2023-02-28T00:55:13.610Z,99463.94
2023-02-28T00:55:26.604Z,99459.56
2023-02-28T00:55:39.537Z,99463.06
2023-02-28T00:55:52.610Z,99463.88
2023-02-28T00:56:06.112Z,99467.31
2023-02-28T00:56:19.141Z,99467.31
2023-02-28T00:56:32.127Z,99465.59
2023-02-28T00:56:47.102Z,99469.16
2023-02-28T00:57:00.324Z,99459.53
2023-02-28T00:57:13.310Z,99453.44
2023-02-28T00:57:26.315Z,99466.53
2023-02-28T00:57:39.259Z,99460.44
2023-02-28T00:57:52.307Z,99463.91
2023-02-28T00:58:05.324Z,99469.13
2023-02-28T00:58:20.716Z,99463.94
2023-02-28T00:58:33.642Z,99465.66
2023-02-28T00:58:46.572Z,99462.16
2023-02-28T00:58:59.500Z,99468.25
2023-02-28T00:59:12.936Z,99466.50
2023-02-28T00:59:25.979Z,99461.38
2023-02-28T00:59:38.967Z,99463.94
2023-02-28T00:59:51.970Z,99463.06
2023-02-28T01:00:05.629Z,99457.94
2023-02-28T01:00:18.960Z,99464.88
2023-02-28T01:00:32.034Z,99467.50
2023-02-28T01:00:50.212Z,99468.37
2023-02-28T01:01:03.387Z,99462.28
2023-02-28T01:01:16.286Z,99470.97
2023-02-28T01:01:29.696Z,99461.41
2023-02-28T01:01:43.390Z,99464.91
2023-02-28T01:01:56.431Z,99468.37
2023-02-28T01:02:09.490Z,99464.88
2023-02-28T01:02:23.438Z,99465.72
2023-02-28T01:02:38.647Z,99463.97
2023-02-28T01:02:51.722Z,99463.16
2023-02-28T01:03:04.746Z,99464.03
2023-02-28T01:03:18.441Z,99466.63
2023-02-28T01:03:31.461Z,99464.94
2023-02-28T01:03:44.564Z,99460.66
2023-02-28T01:03:59.447Z,99464.94
2023-02-28T01:04:12.365Z,99467.53
2023-02-28T01:04:25.499Z,99465.75
2023-02-28T01:04:38.584Z,99464.91
2023-02-28T01:04:51.658Z,99464.06
2023-02-28T01:05:05.388Z,99464.94
2023-02-28T01:05:18.564Z,99462.34
2023-02-28T01:05:31.580Z,99469.28
2023-02-28T01:05:44.597Z,99470.09
2023-02-28T01:05:57.585Z,99460.53
2023-02-28T01:06:10.557Z,99463.97
2023-02-28T01:06:23.486Z,99465.72
2023-02-28T01:06:37.231Z,99462.25
2023-02-28T01:06:50.236Z,99460.53
2023-02-28T01:07:03.190Z,99464.00
2023-02-28T01:07:16.244Z,99466.53
2023-02-28T01:07:29.177Z,99465.72
2023-02-28T01:07:42.114Z,99464.03
2023-02-28T01:07:55.067Z,99462.34
2023-02-28T01:08:08.003Z,99464.06
2023-02-28T01:08:20.989Z,99463.25
2023-02-28T01:08:33.952Z,99458.84
2023-02-28T01:08:46.910Z,99466.69
2023-02-28T01:09:00.475Z,99467.53
2023-02-28T01:09:13.514Z,99466.66
2023-02-28T01:09:26.528Z,99465.78
2023-02-28T01:09:39.511Z,99464.88
2023-02-28T01:09:55.496Z,99465.75
2023-02-28T01:10:09.515Z,99465.75
2023-02-28T01:10:22.590Z,99464.91
2023-02-28T01:10:37.513Z,99464.88
2023-02-28T01:10:50.508Z,99468.34
2023-02-28T01:11:11.181Z,99469.22
2023-02-28T01:11:23.954Z,99465.78
2023-02-28T01:11:36.891Z,99474.47
2023-02-28T01:11:49.984Z,99458.81
2023-02-28T01:12:02.935Z,99461.38
2023-02-28T01:12:16.196Z,99465.75
2023-02-28T01:12:30.919Z,99467.50
2023-02-28T01:12:44.040Z,99464.00
2023-02-28T01:12:57.018Z,99467.50
2023-02-28T01:13:09.910Z,99461.44
2023-02-28T01:13:24.208Z,99466.69
2023-02-28T01:13:37.146Z,99463.19
2023-02-28T01:13:50.087Z,99458.88
2023-02-28T01:14:03.295Z,99460.59
2023-02-28T01:14:16.824Z,99457.06
2023-02-28T01:14:29.785Z,99458.78
2023-02-28T01:14:45.654Z,99458.84
2023-02-28T01:14:59.106Z,99465.75
2023-02-28T01:15:12.398Z,99464.03
2023-02-28T01:15:25.408Z,99459.69
2023-02-28T01:15:39.284Z,99464.00
2023-02-28T01:15:53.903Z,99461.41
2023-02-28T01:16:07.492Z,99466.59
2023-02-28T01:16:20.484Z,99460.47
2023-02-28T01:16:33.506Z,99465.69
2023-02-28T01:16:46.420Z,99468.37
2023-02-28T01:16:59.321Z,99461.41
2023-02-28T01:17:12.320Z,99459.66
2023-02-28T01:17:25.238Z,99461.38
2023-02-28T01:17:38.201Z,99467.47
2023-02-28T01:17:56.695Z,99463.97
2023-02-28T01:18:09.473Z,99469.19
2023-02-28T01:18:23.175Z,99465.78
2023-02-28T01:19:28.032Z,99471.88
2023-02-28T01:19:46.413Z,99470.09
2023-02-28T01:19:59.341Z,99475.28
2023-02-28T01:20:12.557Z,99470.06
2023-02-28T01:20:25.523Z,99470.84
2023-02-28T01:20:39.244Z,99458.78
2023-02-28T01:20:53.446Z,99465.75
2023-02-28T01:21:07.606Z,99477.94
2023-02-28T01:21:21.476Z,99464.88
2023-02-28T01:21:37.436Z,99473.56
2023-02-28T01:21:50.403Z,99473.56
2023-02-28T01:22:04.749Z,99469.13
2023-02-28T01:22:17.755Z,99473.50
2023-02-28T01:22:30.812Z,99472.63
2023-02-28T01:22:43.844Z,99471.81
2023-02-28T01:22:56.982Z,99461.38
2023-02-28T01:23:09.925Z,99474.44
2023-02-28T01:23:24.564Z,99466.59
2023-02-28T01:23:37.550Z,99469.16
2023-02-28T01:23:50.606Z,99468.37
2023-02-28T01:24:04.759Z,99470.97
2023-02-28T01:24:17.698Z,99468.41
2023-02-28T01:24:30.671Z,99471.06
2023-02-28T01:24:43.595Z,99467.56
2023-02-28T01:24:56.509Z,99478.84
2023-02-28T01:25:09.606Z,99472.72
2023-02-28T01:25:22.630Z,99473.59
2023-02-28T01:25:36.566Z,99464.88
2023-02-28T01:25:49.655Z,99472.72
2023-02-28T01:26:09.179Z,99476.19
2023-02-28T01:26:23.164Z,99475.28
2023-02-28T01:26:36.145Z,99476.16
2023-02-28T01:26:49.139Z,99472.69
2023-02-28T01:27:02.088Z,99470.91
2023-02-28T01:27:15.148Z,99472.63
2023-02-28T01:27:29.512Z,99474.31
2023-02-28T01:27:42.493Z,99473.41
2023-02-28T01:27:55.505Z,99481.16
2023-02-28T01:28:08.425Z,99471.59
2023-02-28T01:28:21.501Z,99471.56
2023-02-28T01:28:34.447Z,99476.00
2023-02-28T01:28:47.511Z,99468.25
2023-02-28T01:29:00.553Z,99477.91
2023-02-28T01:29:13.531Z,99472.69
2023-02-28T01:29:26.556Z,99475.22
2023-02-28T01:29:39.553Z,99474.34
2023-02-28T01:29:52.644Z,99476.16
2023-02-28T01:30:06.123Z,99467.47
2023-02-28T01:30:19.152Z,99469.09
2023-02-28T01:30:32.188Z,99464.72
2023-02-28T01:30:49.328Z,99472.56
2023-02-28T01:31:02.540Z,99474.34
2023-02-28T01:31:15.594Z,99472.75
2023-02-28T01:31:29.090Z,99477.09
2023-02-28T01:31:42.234Z,99474.47
2023-02-28T01:31:55.294Z,99473.59
2023-02-28T01:32:08.300Z,99477.06
2023-02-28T01:32:21.369Z,99472.69
2023-02-28T01:32:34.392Z,99472.69
2023-02-28T01:32:47.338Z,99477.88
2023-02-28T01:33:00.729Z,99469.25
2023-02-28T01:33:13.674Z,99475.34
2023-02-28T01:33:26.906Z,99470.91
2023-02-28T01:33:40.035Z,99477.00
2023-02-28T01:33:53.080Z,99468.34
2023-02-28T01:34:06.087Z,99470.03
2023-02-28T01:34:20.437Z,99477.03
2023-02-28T01:34:33.354Z,99474.28
2023-02-28T01:34:46.267Z,99469.13
2023-02-28T01:34:59.174Z,99467.41
2023-02-28T01:35:12.142Z,99471.66
2023-02-28T01:35:25.101Z,99472.56
2023-02-28T01:35:38.063Z,99473.34
2023-02-28T01:35:51.126Z,99468.94
2023-02-28T01:36:08.471Z,99472.41
2023-02-28T01:36:22.204Z,99475.03
2023-02-28T01:36:34.919Z,99474.19
2023-02-28T01:36:47.904Z,99473.34
2023-02-28T01:37:00.888Z,99468.97
2023-02-28T01:37:13.790Z,99474.25
2023-02-28T01:37:26.853Z,99471.66
2023-02-28T01:37:39.916Z,99468.19
2023-02-28T01:37:52.853Z,99478.75
2023-02-28T01:38:20.934Z,99468.28
2023-02-28T01:38:34.977Z,99465.75
2023-02-28T01:38:48.253Z,99469.13
2023-02-28T01:39:01.274Z,99469.16
2023-02-28T01:39:14.206Z,99474.34
2023-02-28T01:39:27.448Z,99464.81
2023-02-28T01:39:40.501Z,99465.63
2023-02-28T01:39:53.464Z,99469.94
2023-02-28T01:40:07.121Z,99470.88
2023-02-28T01:40:20.199Z,99470.91
2023-02-28T01:40:33.177Z,99471.81
2023-02-28T01:40:46.066Z,99471.84
2023-02-28T01:40:59.025Z,99470.09
2023-02-28T01:41:20.157Z,99470.03
2023-02-28T01:41:33.969Z,99463.88
2023-02-28T01:41:46.752Z,99474.34
2023-02-28T01:41:59.780Z,99471.66
2023-02-28T01:42:12.762Z,99470.81
2023-02-28T01:42:25.685Z,99475.13
2023-02-28T01:42:38.624Z,99475.19
2023-02-28T01:42:51.693Z,99470.03
2023-02-28T01:43:08.971Z,99470.97
2023-02-28T01:43:26.718Z,99474.47
2023-02-28T01:43:45.129Z,99475.34
2023-02-28T01:44:04.361Z,99477.91
2023-02-28T01:44:35.765Z,99475.22
2023-02-28T01:45:16.974Z,99474.34
2023-02-28T01:45:30.738Z,99474.31
2023-02-28T01:45:43.711Z,99473.41
2023-02-28T01:45:57.510Z,99470.00
2023-02-28T01:46:11.268Z,99475.28
2023-02-28T01:46:24.427Z,99468.28
2023-02-28T01:46:37.615Z,99471.81
2023-02-28T01:46:50.628Z,99474.34
2023-02-28T01:47:03.559Z,99473.41
2023-02-28T01:47:16.565Z,99470.84
2023-02-28T01:47:39.772Z,99473.38
2023-02-28T01:47:53.354Z,99469.69
2023-02-28T01:48:08.795Z,99469.69
2023-02-28T01:48:27.222Z,99474.87
2023-02-28T01:48:45.841Z,99471.38
2023-02-28T01:49:00.538Z,99474.87
2023-02-28T01:49:14.696Z,99475.75
2023-02-28T01:49:27.735Z,99464.44
2023-02-28T01:49:40.773Z,99467.06
2023-02-28T01:49:53.714Z,99467.87
2023-02-28T01:50:08.900Z,99470.47
2023-02-28T01:50:24.109Z,99466.91
2023-02-28T01:50:38.648Z,99467.03
2023-02-28T01:50:51.645Z,99468.81
2023-02-28T01:51:06.976Z,99468.88
2023-02-28T01:51:52.893Z,99468.72
2023-02-28T01:52:05.837Z,99466.19
2023-02-28T01:52:19.355Z,99462.72
2023-02-28T01:52:32.347Z,99467.06
2023-02-28T01:52:45.339Z,99466.19
2023-02-28T01:52:59.442Z,99467.06
2023-02-28T01:53:14.888Z,99464.44
2023-02-28T01:53:36.421Z,99474.91
2023-02-28T01:53:52.868Z,99462.72
2023-02-28T01:54:14.743Z,99466.19
2023-02-28T01:54:30.227Z,99465.25
2023-02-28T01:54:43.300Z,99461.03
2023-02-28T01:54:57.569Z,99461.03
2023-02-28T01:55:10.527Z,99468.78
2023-02-28T01:55:23.642Z,99462.63
2023-02-28T01:55:36.581Z,99457.31
2023-02-28T01:55:50.269Z,99461.63
2023-02-28T01:56:04.354Z,99466.84
2023-02-28T01:56:21.871Z,99469.47
2023-02-28T01:56:34.896Z,99466.00
2023-02-28T01:56:53.588Z,99463.41
2023-02-28T01:57:11.234Z,99473.94
2023-02-28T01:57:25.361Z,99461.88
2023-02-28T01:57:41.091Z,99470.62
2023-02-28T01:57:54.922Z,99471.38
2023-02-28T01:58:08.043Z,99465.31
2023-02-28T01:58:21.108Z,99463.53
2023-02-28T01:58:34.512Z,99468.69
2023-02-28T01:58:56.575Z,99466.84
2023-02-28T01:59:09.298Z,99467.72
2023-02-28T01:59:26.505Z,99463.53
2023-02-28T01:59:51.274Z,99466.13
2023-02-28T02:00:15.736Z,99466.19
2023-02-28T02:00:28.848Z,99461.75
2023-02-28T02:00:43.926Z,99464.28
2023-02-28T02:00:58.468Z,99463.34
2023-02-28T02:01:22.703Z,99455.53
2023-02-28T02:01:35.762Z,99457.28
2023-02-28T02:01:48.750Z,99448.50
2023-02-28T02:02:02.477Z,99456.31
2023-02-28T02:02:16.027Z,99464.12
2023-02-28T02:02:29.029Z,99462.38
2023-02-28T02:02:46.241Z,99456.38
2023-02-28T02:03:00.943Z,99462.53
2023-02-28T02:03:17.196Z,99457.38
2023-02-28T02:03:30.432Z,99452.97
2023-02-28T02:03:43.387Z,99458.19
2023-02-28T02:04:00.427Z,99457.25
2023-02-28T02:04:13.396Z,99457.16
2023-02-28T02:04:27.493Z,99459.78
2023-02-28T02:04:43.700Z,99465.00
2023-02-28T02:05:02.809Z,99461.34
2023-02-28T02:05:26.318Z,99467.44
2023-02-28T02:05:40.384Z,99466.59
2023-02-28T02:05:53.358Z,99451.84
2023-02-28T02:06:06.566Z,99467.56
2023-02-28T02:06:19.528Z,99462.38
2023-02-28T02:06:52.670Z,99463.31
2023-02-28T02:07:05.625Z,99464.28
2023-02-28T02:07:18.564Z,99463.38
2023-02-28T02:07:33.992Z,99462.41
2023-02-28T02:07:47.925Z,99464.94
2023-02-28T02:08:05.819Z,99463.00
2023-02-28T02:08:26.912Z,99458.50
2023-02-28T02:08:39.833Z,99464.72
2023-02-28T02:08:53.534Z,99460.47
2023-02-28T02:09:07.250Z,99463.06
2023-02-28T02:09:20.215Z,99459.63
2023-02-28T02:09:33.194Z,99456.12
2023-02-28T02:09:46.197Z,99460.53
2023-02-28T02:10:03.877Z,99463.00
2023-02-28T02:10:17.065Z,99458.56
2023-02-28T02:10:36.730Z,99459.37
2023-02-28T02:10:54.472Z,99459.19
2023-02-28T02:11:09.743Z,99457.47
2023-02-28T02:11:23.313Z,99455.72
2023-02-28T02:11:36.229Z,99455.66
2023-02-28T02:11:49.112Z,99454.03
2023-02-28T02:12:05.449Z,99457.69
2023-02-28T02:12:46.431Z,99454.31
2023-02-28T02:13:32.967Z,99457.06
2023-02-28T02:14:05.216Z,99464.97
2023-02-28T02:14:33.446Z,99462.47
2023-02-28T02:15:06.920Z,99461.63
2023-02-28T02:15:27.640Z,99463.19
2023-02-28T02:16:05.373Z,99463.00
2023-02-28T02:16:47.162Z,99464.81
2023-02-28T02:17:20.801Z,99463.16
2023-02-28T02:17:38.064Z,99463.25
2023-02-28T02:17:53.413Z,99464.03
2023-02-28T02:18:27.312Z,99467.47
2023-02-28T02:18:49.754Z,99461.94
2023-02-28T02:19:09.095Z,99465.19
2023-02-28T02:19:52.722Z,99464.25
2023-02-28T02:20:14.444Z,99463.44
2023-02-28T02:20:36.052Z,99462.88
2023-02-28T02:21:01.055Z,99470.88
2023-02-28T02:21:55.571Z,99473.50
2023-02-28T02:22:20.781Z,99449.84
2023-02-28T02:22:56.558Z,99465.78
2023-02-28T02:23:30.444Z,99467.63
2023-02-28T02:23:52.474Z,99459.87
2023-02-28T02:24:36.323Z,99466.72
2023-02-28T02:24:58.277Z,99457.94
2023-02-28T02:25:12.756Z,99462.28
2023-02-28T02:26:03.298Z,99467.53
2023-02-28T02:26:40.802Z,99464.12
2023-02-28T02:27:13.679Z,99461.59
2023-02-28T02:27:32.073Z,99459.75
2023-02-28T02:28:05.939Z,99454.69
2023-02-28T03:02:11.541Z,99465.84
2023-02-28T03:02:24.389Z,99463.75
2023-02-28T03:02:38.049Z,99454.00
2023-02-28T03:02:51.027Z,99458.34
2023-02-28T03:03:04.110Z,99460.91
2023-02-28T03:03:18.786Z,99457.31
2023-02-28T03:03:31.881Z,99454.66
2023-02-28T03:03:44.989Z,99458.06
2023-02-28T03:04:15.090Z,99455.44
2023-02-28T03:04:30.147Z,99465.34
2023-02-28T03:05:02.487Z,99463.47
2023-02-28T03:06:48.088Z,99462.72
2023-02-28T03:07:01.386Z,99458.22
2023-02-28T03:07:16.749Z,99463.47
2023-02-28T03:07:30.051Z,99461.00
2023-02-28T03:07:50.630Z,99455.84
2023-02-28T03:08:06.821Z,99461.13
2023-02-28T03:08:19.824Z,99461.13
2023-02-28T03:08:38.467Z,99461.09
2023-02-28T03:08:51.589Z,99461.88
2023-02-28T03:09:05.557Z,99465.28
2023-02-28T03:09:18.518Z,99460.87
2023-02-28T03:09:34.237Z,99461.78
2023-02-28T03:09:54.548Z,99471.47
2023-02-28T03:10:37.367Z,99463.44
2023-02-28T03:10:51.463Z,99460.81
2023-02-28T03:11:06.550Z,99466.69
2023-02-28T03:11:21.606Z,99465.88
2023-02-28T03:11:35.754Z,99469.38
2023-02-28T03:11:48.680Z,99466.78
2023-02-28T03:12:01.630Z,99464.19
2023-02-28T03:12:14.563Z,99464.97
2023-02-28T03:12:45.724Z,99463.31
2023-02-28T03:13:33.039Z,99465.38
2023-02-28T03:14:03.780Z,99466.31
2023-02-28T03:14:30.202Z,99471.62
2023-02-28T03:15:11.065Z,99456.81
2023-02-28T03:15:28.795Z,99466.31
2023-02-28T03:16:13.568Z,99469.63
2023-02-28T03:16:47.197Z,99468.88
2023-02-28T03:17:25.100Z,99473.41
2023-02-28T03:17:53.658Z,99477.00
2023-02-28T03:18:23.660Z,99470.94
2023-02-28T03:18:48.721Z,99465.19
2023-02-28T03:19:08.278Z,99476.66
2023-02-28T03:19:53.838Z,99475.06
2023-02-28T03:20:14.999Z,99463.56
2023-02-28T03:20:59.192Z,99464.34
2023-02-28T03:21:38.351Z,99466.22
2023-02-28T03:22:00.235Z,99469.44
2023-02-28T03:22:31.788Z,99473.84
2023-02-28T03:23:09.779Z,99476.44
2023-02-28T03:23:36.638Z,99476.28
2023-02-28T03:24:02.076Z,99472.94
2023-02-28T03:24:30.519Z,99470.53
2023-02-28T03:25:04.569Z,99475.72
2023-02-28T03:25:26.117Z,99467.78
2023-02-28T03:26:13.697Z,99473.75
2023-02-28T03:26:27.791Z,99471.31
2023-02-28T03:26:43.295Z,99469.81
2023-02-28T03:27:08.757Z,99468.97
2023-02-28T03:27:30.243Z,99459.47
2023-02-28T03:27:46.634Z,99475.16
2023-02-28T03:28:17.907Z,99470.00
2023-02-28T03:29:06.423Z,99470.00
2023-02-28T03:29:29.683Z,99469.94
2023-02-28T03:29:52.078Z,99475.72
2023-02-28T03:30:07.901Z,99468.00
2023-02-28T03:30:48.024Z,99468.84
2023-02-28T03:31:10.343Z,99466.97
2023-02-28T03:31:37.651Z,99471.34
2023-02-28T03:32:05.156Z,99467.84
2023-02-28T03:32:25.804Z,99468.06
2023-02-28T03:32:42.916Z,99469.06
2023-02-28T03:33:02.577Z,99469.06
2023-02-28T03:33:24.191Z,99464.75
2023-02-28T03:33:56.110Z,99471.75
2023-02-28T03:34:12.117Z,99471.00
2023-02-28T03:34:31.456Z,99473.63
2023-02-28T03:34:53.470Z,99471.88
2023-02-28T03:35:23.004Z,99472.69
2023-02-28T03:35:41.651Z,99476.94
2023-02-28T03:36:09.402Z,99476.34
2023-02-28T03:36:33.831Z,99472.03
2023-02-28T03:36:49.218Z,99479.06
2023-02-28T03:37:05.707Z,99474.00
2023-02-28T03:37:21.274Z,99470.47
2023-02-28T03:37:37.001Z,99473.00
2023-02-28T03:37:53.417Z,99467.75
2023-02-28T03:39:08.303Z,99467.63
2023-02-28T03:39:29.543Z,99471.19
2023-02-28T03:39:45.369Z,99468.59
2023-02-28T03:40:04.982Z,99473.72
2023-02-28T03:40:21.303Z,99472.63
2023-02-28T03:40:34.752Z,99468.09
2023-02-28T03:40:55.574Z,99474.31
2023-02-28T03:41:11.862Z,99469.22
2023-02-28T03:41:48.911Z,99477.16
2023-02-28T03:42:04.011Z,99472.81
2023-02-28T03:42:21.582Z,99473.56
2023-02-28T03:42:35.511Z,99469.13
2023-02-28T03:42:50.357Z,99471.75
2023-02-28T03:43:05.719Z,99468.28
2023-02-28T03:43:21.480Z,99471.75
2023-02-28T03:43:36.250Z,99470.91
2023-02-28T03:43:57.123Z,99469.22
2023-02-28T03:44:16.562Z,99465.56
2023-02-28T03:44:34.656Z,99471.38
2023-02-28T03:44:51.735Z,99463.56
2023-02-28T03:45:12.435Z,99467.03
2023-02-28T03:45:30.112Z,99471.38
2023-02-28T03:45:43.140Z,99469.75
2023-02-28T03:45:56.356Z,99467.19
2023-02-28T03:46:11.697Z,99470.62
2023-02-28T03:46:26.658Z,99469.75
2023-02-28T03:46:39.895Z,99467.81
2023-02-28T03:46:59.399Z,99459.97
2023-02-28T03:47:15.899Z,99460.91
2023-02-28T03:47:33.189Z,99464.50
2023-02-28T03:47:51.149Z,99472.41
2023-02-28T03:48:15.162Z,99468.94
2023-02-28T03:48:33.040Z,99468.28
2023-02-28T03:48:49.577Z,99470.16
2023-02-28T03:49:03.859Z,99460.63
2023-02-28T03:49:28.493Z,99465.00
2023-02-28T03:49:48.856Z,99471.16
2023-02-28T03:50:18.412Z,99470.28
2023-02-28T03:50:41.341Z,99471.06
2023-02-28T03:50:56.245Z,99462.44
2023-02-28T03:51:09.940Z,99465.06
2023-02-28T03:51:23.995Z,99463.31
2023-02-28T03:51:36.926Z,99462.31
2023-02-28T03:51:50.352Z,99461.53
2023-02-28T03:52:04.498Z,99464.25
2023-02-28T03:52:17.578Z,99468.56
2023-02-28T03:52:33.781Z,99471.16
2023-02-28T03:53:02.140Z,99467.56
2023-02-28T03:53:16.110Z,99472.72
2023-02-28T03:53:32.009Z,99468.34
2023-02-28T03:53:55.946Z,99466.50
2023-02-28T03:54:11.131Z,99473.56
2023-02-28T03:54:34.635Z,99470.97
2023-02-28T03:54:50.228Z,99470.16
2023-02-28T03:55:08.216Z,99468.31
2023-02-28T03:55:21.391Z,99471.56
2023-02-28T03:55:40.947Z,99468.72
2023-02-28T03:56:22.752Z,99467.69
2023-02-28T03:56:55.025Z,99473.03
2023-02-28T03:57:38.162Z,99477.72
2023-02-28T03:58:05.365Z,99471.34
2023-02-28T03:58:37.790Z,99476.16
2023-02-28T03:59:03.620Z,99472.59
2023-02-28T03:59:20.711Z,99474.31
2023-02-28T03:59:40.063Z,99468.22
2023-02-28T04:00:01.237Z,99469.09
2023-02-28T04:00:18.624Z,99469.19
2023-02-28T04:00:35.436Z,99461.63
2023-02-28T04:00:50.932Z,99465.22
2023-02-28T04:01:10.190Z,99471.47
2023-02-28T04:01:38.085Z,99461.06
2023-02-28T04:01:51.242Z,99468.09